createdAt,value
2023-01-26T00:00:02.891Z,969.42
2023-01-26T00:00:53.053Z,969.40
2023-01-26T00:01:43.115Z,969.43
2023-01-26T00:02:32.891Z,969.41
2023-01-26T00:03:22.903Z,969.40
2023-01-26T00:04:12.882Z,969.40
2023-01-26T00:05:02.862Z,969.40
2023-01-26T00:05:52.845Z,969.43
2023-01-26T00:06:42.825Z,969.46
2023-01-26T00:07:32.811Z,969.43
2023-01-26T00:08:22.824Z,969.44
2023-01-26T00:09:12.780Z,969.41
2023-01-26T00:10:02.793Z,969.41
2023-01-26T00:10:52.797Z,969.41
2023-01-26T00:11:42.841Z,969.43
2023-01-26T00:12:32.769Z,969.39
2023-01-26T00:13:22.753Z,969.32
2023-01-26T00:14:12.731Z,969.33
2023-01-26T00:15:02.730Z,969.29
2023-01-26T00:15:52.731Z,969.29
2023-01-26T00:16:43.341Z,969.24
2023-01-26T00:17:32.699Z,969.21
2023-01-26T00:18:22.691Z,969.20
2023-01-26T00:19:12.692Z,969.24
2023-01-26T00:20:02.669Z,969.16
2023-01-26T00:20:52.822Z,969.19
2023-01-26T00:21:42.661Z,969.22
2023-01-26T00:22:32.648Z,969.24
2023-01-26T00:23:22.622Z,969.22
2023-01-26T00:24:12.693Z,969.22
2023-01-26T00:25:02.653Z,969.18
2023-01-26T00:25:52.687Z,969.18
2023-01-26T00:26:42.597Z,969.17
2023-01-26T00:27:32.609Z,969.13
2023-01-26T00:28:22.586Z,969.14
2023-01-26T00:29:12.597Z,969.13
2023-01-26T00:30:02.604Z,969.11
2023-01-26T00:30:52.588Z,969.15
2023-01-26T00:31:42.610Z,969.10
2023-01-26T00:32:32.535Z,969.08
2023-01-26T00:33:22.525Z,969.08
2023-01-26T00:34:12.544Z,969.08
2023-01-26T00:35:02.524Z,969.04
2023-01-26T00:35:52.502Z,969.02
2023-01-26T00:36:42.495Z,969.07
2023-01-26T00:37:32.465Z,969.03
2023-01-26T00:38:23.635Z,969.02
2023-01-26T00:39:12.482Z,969.03
2023-01-26T00:40:02.464Z,969.00
2023-01-26T00:40:52.451Z,969.00
2023-01-26T00:41:42.431Z,969.02
2023-01-26T00:42:32.443Z,968.99
2023-01-26T00:43:22.427Z,968.97
2023-01-26T00:44:12.407Z,968.94
2023-01-26T00:45:02.414Z,968.92
2023-01-26T00:45:52.420Z,968.90
2023-01-26T00:46:42.437Z,968.88
2023-01-26T00:47:32.431Z,968.87
2023-01-26T00:48:24.553Z,968.84
2023-01-26T00:49:12.363Z,968.84
2023-01-26T00:50:02.391Z,968.84
2023-01-26T00:50:52.517Z,968.81
2023-01-26T00:51:42.331Z,968.78
2023-01-26T00:52:32.312Z,968.74
2023-01-26T00:53:22.302Z,968.76
2023-01-26T00:54:12.394Z,968.77
2023-01-26T00:55:02.316Z,968.75
2023-01-26T00:55:52.511Z,968.77
2023-01-26T00:56:42.271Z,968.76
2023-01-26T00:57:33.042Z,968.73
2023-01-26T00:58:22.263Z,968.73
2023-01-26T00:59:12.246Z,968.72
2023-01-26T01:00:02.267Z,968.75
2023-01-26T01:00:52.243Z,968.74
2023-01-26T01:01:42.322Z,968.70
2023-01-26T01:02:32.271Z,968.69
2023-01-26T01:03:22.244Z,968.70
2023-01-26T01:04:12.227Z,968.69
2023-01-26T01:05:02.215Z,968.69
2023-01-26T01:05:52.419Z,968.64
2023-01-26T01:06:42.514Z,968.66
2023-01-26T01:07:32.139Z,968.63
2023-01-26T01:08:22.139Z,968.69
2023-01-26T01:09:12.118Z,968.65
2023-01-26T01:10:02.120Z,968.63
2023-01-26T01:10:52.163Z,968.65
2023-01-26T01:11:42.127Z,968.58
2023-01-26T01:12:32.121Z,968.58
2023-01-26T01:13:22.193Z,968.57
2023-01-26T01:14:12.253Z,968.56
2023-01-26T01:15:02.286Z,968.58
2023-01-26T01:15:52.112Z,968.57
2023-01-26T01:16:42.205Z,968.51
2023-01-26T01:17:32.265Z,968.52
2023-01-26T01:18:22.540Z,968.50
2023-01-26T01:19:12.187Z,968.52
2023-01-26T01:20:02.025Z,968.50
2023-01-26T01:20:52.005Z,968.54
2023-01-26T01:21:42.049Z,968.50
2023-01-26T01:22:32.020Z,968.49
2023-01-26T01:23:21.985Z,968.52
2023-01-26T01:24:12.000Z,968.52
2023-01-26T01:25:01.996Z,968.56
2023-01-26T01:25:51.954Z,968.57
2023-01-26T01:26:41.960Z,968.57
2023-01-26T01:27:31.953Z,968.55
2023-01-26T01:28:21.925Z,968.54
2023-01-26T01:29:11.945Z,968.54
2023-01-26T01:30:01.921Z,968.55
2023-01-26T01:30:51.975Z,968.57
2023-01-26T01:31:42.003Z,968.58
2023-01-26T01:32:31.876Z,968.56
2023-01-26T01:33:21.893Z,968.62
2023-01-26T01:34:11.887Z,968.60
2023-01-26T01:35:01.872Z,968.56
2023-01-26T01:35:51.832Z,968.53
2023-01-26T01:36:41.911Z,968.54
2023-01-26T01:37:32.159Z,968.55
2023-01-26T01:38:21.834Z,968.52
2023-01-26T01:39:11.822Z,968.52
2023-01-26T01:40:01.818Z,968.48
2023-01-26T01:40:51.806Z,968.50
2023-01-26T01:41:41.787Z,968.44
2023-01-26T01:42:31.771Z,968.52
2023-01-26T01:43:21.782Z,968.51
2023-01-26T01:44:11.811Z,968.50
2023-01-26T01:45:01.751Z,968.51
2023-01-26T01:45:51.758Z,968.44
2023-01-26T01:46:41.758Z,968.47
2023-01-26T01:47:31.711Z,968.38
2023-01-26T01:48:21.754Z,968.37
2023-01-26T01:49:11.703Z,968.34
2023-01-26T01:50:01.704Z,968.34
2023-01-26T01:50:51.677Z,968.32
2023-01-26T01:51:41.674Z,968.36
2023-01-26T01:52:31.683Z,968.27
2023-01-26T01:53:21.665Z,968.30
2023-01-26T01:54:11.655Z,968.28
2023-01-26T01:55:01.656Z,968.31
2023-01-26T01:55:51.635Z,968.33
2023-01-26T01:56:41.615Z,968.32
2023-01-26T01:57:31.624Z,968.31
2023-01-26T01:58:21.611Z,968.32
2023-01-26T01:59:11.585Z,968.31
2023-01-26T02:00:01.578Z,968.31
2023-01-26T02:00:51.618Z,968.27
2023-01-26T02:01:41.579Z,968.30
2023-01-26T02:02:31.551Z,968.36
2023-01-26T02:03:21.571Z,968.37
2023-01-26T02:04:11.532Z,968.36
2023-01-26T02:05:01.574Z,968.31
2023-01-26T02:05:51.532Z,968.29
2023-01-26T02:06:41.525Z,968.31
2023-01-26T02:07:31.494Z,968.33
2023-01-26T02:08:21.508Z,968.35
2023-01-26T02:09:11.483Z,968.36
2023-01-26T02:10:01.524Z,968.34
2023-01-26T02:10:51.470Z,968.31
2023-01-26T02:11:41.495Z,968.33
2023-01-26T02:12:31.460Z,968.33
2023-01-26T02:13:21.436Z,968.30
2023-01-26T02:14:11.465Z,968.32
2023-01-26T02:15:01.419Z,968.31
2023-01-26T02:15:51.430Z,968.29
2023-01-26T02:16:41.425Z,968.26
2023-01-26T02:17:31.405Z,968.24
2023-01-26T02:18:21.425Z,968.22
2023-01-26T02:19:11.370Z,968.25
2023-01-26T02:20:01.389Z,968.18
2023-01-26T02:20:51.350Z,968.18
2023-01-26T02:21:41.338Z,968.12
2023-01-26T02:22:31.370Z,968.10
2023-01-26T02:23:21.323Z,968.10
2023-01-26T02:24:11.373Z,968.07
2023-01-26T02:25:01.320Z,968.11
2023-01-26T02:25:51.309Z,968.08
2023-01-26T02:26:41.336Z,968.08
2023-01-26T02:27:31.292Z,968.09
2023-01-26T02:28:21.298Z,968.11
2023-01-26T02:29:11.286Z,968.13
2023-01-26T02:30:01.285Z,968.07
2023-01-26T02:30:51.311Z,968.15
2023-01-26T02:31:41.310Z,968.15
2023-01-26T02:32:31.249Z,968.10
2023-01-26T02:33:21.207Z,968.15
2023-01-26T02:34:11.219Z,968.14
2023-01-26T02:35:01.256Z,968.15
2023-01-26T02:35:51.197Z,968.09
2023-01-26T02:36:41.187Z,968.07
2023-01-26T02:37:31.178Z,968.06
2023-01-26T02:38:21.167Z,968.06
2023-01-26T02:39:11.153Z,968.05
2023-01-26T02:40:01.165Z,968.00
2023-01-26T02:40:51.144Z,968.02
2023-01-26T02:41:41.129Z,968.01
2023-01-26T02:42:31.125Z,967.99
2023-01-26T02:43:21.116Z,968.01
2023-01-26T02:44:11.104Z,967.96
2023-01-26T02:45:01.116Z,968.01
2023-01-26T02:45:51.080Z,968.00
2023-01-26T02:46:41.138Z,968.02
2023-01-26T02:47:31.083Z,968.02
2023-01-26T02:48:21.063Z,967.98
2023-01-26T02:49:11.053Z,967.94
2023-01-26T02:50:01.033Z,967.92
2023-01-26T02:50:51.043Z,967.94
2023-01-26T02:51:41.014Z,967.89
2023-01-26T02:52:31.040Z,967.89
2023-01-26T02:53:21.013Z,967.87
2023-01-26T02:54:10.995Z,967.91
2023-01-26T02:55:00.996Z,967.86
2023-01-26T02:55:50.997Z,967.86
2023-01-26T02:56:40.999Z,967.87
2023-01-26T02:57:30.950Z,967.86
2023-01-26T02:58:20.939Z,967.91
2023-01-26T02:59:10.951Z,967.95
2023-01-26T03:00:00.922Z,967.90
2023-01-26T03:00:50.972Z,967.92
2023-01-26T03:01:40.974Z,967.94
2023-01-26T03:02:30.914Z,967.94
2023-01-26T03:03:20.907Z,967.95
2023-01-26T03:04:10.910Z,967.95
2023-01-26T03:05:00.884Z,967.96
2023-01-26T03:05:50.881Z,967.96
2023-01-26T03:06:40.886Z,967.98
2023-01-26T03:07:30.863Z,968.00
2023-01-26T03:08:20.829Z,967.98
2023-01-26T03:09:10.846Z,967.93
2023-01-26T03:10:00.820Z,967.98
2023-01-26T03:10:50.834Z,967.96
2023-01-26T03:11:40.787Z,967.94
2023-01-26T03:12:30.812Z,967.99
2023-01-26T03:13:20.789Z,967.95
2023-01-26T03:14:10.787Z,967.97
2023-01-26T03:15:00.767Z,967.98
2023-01-26T03:15:50.825Z,967.99
2023-01-26T03:16:40.751Z,968.00
2023-01-26T03:17:30.750Z,967.99
2023-01-26T03:18:20.763Z,968.00
2023-01-26T03:19:10.718Z,967.95
2023-01-26T03:20:00.710Z,967.93
2023-01-26T03:20:50.720Z,967.94
2023-01-26T03:21:40.725Z,967.95
2023-01-26T03:22:30.727Z,967.96
2023-01-26T03:23:20.686Z,967.92
2023-01-26T03:24:10.772Z,967.96
2023-01-26T03:25:00.663Z,967.91
2023-01-26T03:25:50.645Z,967.92
2023-01-26T03:26:40.639Z,967.92
2023-01-26T03:27:30.625Z,967.97
2023-01-26T03:28:20.623Z,967.90
2023-01-26T03:29:10.605Z,967.93
2023-01-26T03:30:00.621Z,967.95
2023-01-26T03:30:50.637Z,967.96
2023-01-26T03:31:40.648Z,967.95
2023-01-26T03:32:30.587Z,967.95
2023-01-26T03:33:20.572Z,967.91
2023-01-26T03:34:10.551Z,967.94
2023-01-26T03:35:00.565Z,967.94
2023-01-26T03:35:50.549Z,967.92
2023-01-26T03:36:40.554Z,967.91
2023-01-26T03:37:30.535Z,967.99
2023-01-26T03:38:20.548Z,967.90
2023-01-26T03:39:10.499Z,967.91
2023-01-26T03:40:00.489Z,967.94
2023-01-26T03:40:50.508Z,967.89
2023-01-26T03:41:40.489Z,967.87
2023-01-26T03:42:30.496Z,967.85
2023-01-26T03:43:20.482Z,967.84
2023-01-26T03:44:10.458Z,967.87
2023-01-26T03:45:00.455Z,967.88
2023-01-26T03:45:50.462Z,967.89
2023-01-26T03:46:40.432Z,967.84
2023-01-26T03:47:30.436Z,967.82
2023-01-26T03:48:20.399Z,967.82
2023-01-26T03:49:10.399Z,967.77
2023-01-26T03:50:00.409Z,967.79
2023-01-26T03:50:50.407Z,967.80
2023-01-26T03:51:40.371Z,967.75
2023-01-26T03:52:30.360Z,967.81
2023-01-26T03:53:20.359Z,967.78
2023-01-26T03:54:10.382Z,967.79
2023-01-26T03:55:00.343Z,967.80
2023-01-26T03:55:50.351Z,967.81
2023-01-26T03:56:40.331Z,967.78
2023-01-26T03:57:30.331Z,967.75
2023-01-26T03:58:20.311Z,967.75
2023-01-26T03:59:10.305Z,967.71
2023-01-26T04:00:00.281Z,967.72
2023-01-26T04:00:50.324Z,967.72
2023-01-26T04:01:40.344Z,967.69
2023-01-26T04:02:30.276Z,967.68
2023-01-26T04:03:20.248Z,967.67
2023-01-26T04:04:10.248Z,967.66
2023-01-26T04:05:00.228Z,967.66
2023-01-26T04:05:50.224Z,967.64
2023-01-26T04:06:40.406Z,967.67
2023-01-26T04:07:30.206Z,967.62
2023-01-26T04:08:20.205Z,967.60
2023-01-26T04:09:10.191Z,967.61
2023-01-26T04:10:00.179Z,967.62
2023-01-26T04:10:50.165Z,967.62
2023-01-26T04:11:40.145Z,967.66
2023-01-26T04:12:30.181Z,967.67
2023-01-26T04:13:20.134Z,967.63
2023-01-26T04:14:10.135Z,967.63
2023-01-26T04:15:00.127Z,967.61
2023-01-26T04:15:50.105Z,967.61
2023-01-26T04:16:40.174Z,967.62
2023-01-26T04:17:30.103Z,967.59
2023-01-26T04:18:20.075Z,967.53
2023-01-26T04:19:10.116Z,967.54
2023-01-26T04:20:00.092Z,967.56
2023-01-26T04:20:50.051Z,967.49
2023-01-26T04:21:40.074Z,967.50
2023-01-26T04:22:30.061Z,967.48
2023-01-26T04:23:20.018Z,967.47
2023-01-26T04:24:10.051Z,967.45
2023-01-26T04:25:00.034Z,967.43
2023-01-26T04:25:50.010Z,967.45
2023-01-26T04:26:39.990Z,967.43
2023-01-26T04:27:29.990Z,967.44
2023-01-26T04:28:19.977Z,967.39
2023-01-26T04:29:09.963Z,967.41
2023-01-26T04:29:59.965Z,967.37
2023-01-26T04:30:49.986Z,967.40
2023-01-26T04:31:39.990Z,967.38
2023-01-26T04:32:29.945Z,967.40
2023-01-26T04:33:19.906Z,967.36
2023-01-26T04:34:09.903Z,967.39
2023-01-26T04:34:59.890Z,967.31
2023-01-26T04:35:49.944Z,967.32
2023-01-26T04:36:39.882Z,967.26
2023-01-26T04:37:29.867Z,967.29
2023-01-26T04:38:19.867Z,967.25
2023-01-26T04:39:09.868Z,967.26
2023-01-26T04:39:59.844Z,967.24
2023-01-26T04:40:49.846Z,967.25
2023-01-26T04:41:42.255Z,967.23
2023-01-26T04:42:29.838Z,967.20
2023-01-26T04:43:19.809Z,967.19
2023-01-26T04:44:09.807Z,967.22
2023-01-26T04:44:59.779Z,967.19
2023-01-26T04:45:49.884Z,967.17
2023-01-26T04:46:39.820Z,967.15
2023-01-26T04:47:29.767Z,967.21
2023-01-26T04:48:19.796Z,967.23
2023-01-26T04:49:09.737Z,967.17
2023-01-26T04:49:59.739Z,967.21
2023-01-26T04:50:49.734Z,967.19
2023-01-26T04:51:39.796Z,967.18
2023-01-26T04:52:29.705Z,967.18
2023-01-26T04:53:19.716Z,967.17
2023-01-26T04:54:09.685Z,967.16
2023-01-26T04:54:59.672Z,967.18
2023-01-26T04:55:49.739Z,967.16
2023-01-26T04:56:39.672Z,967.13
2023-01-26T04:57:29.651Z,967.19
2023-01-26T04:58:19.664Z,967.15
2023-01-26T04:59:09.656Z,967.17
2023-01-26T04:59:59.631Z,967.12
2023-01-26T05:00:49.666Z,967.17
2023-01-26T05:01:39.624Z,967.11
2023-01-26T05:02:29.607Z,967.16
2023-01-26T05:03:19.634Z,967.14
2023-01-26T05:04:09.665Z,967.17
2023-01-26T05:04:59.583Z,967.17
2023-01-26T05:05:49.559Z,967.19
2023-01-26T05:06:39.579Z,967.18
2023-01-26T05:07:29.577Z,967.18
2023-01-26T05:08:19.546Z,967.22
2023-01-26T05:09:09.525Z,967.22
2023-01-26T05:09:59.501Z,967.21
2023-01-26T05:10:49.541Z,967.22
2023-01-26T05:11:39.488Z,967.20
2023-01-26T05:12:29.500Z,967.20
2023-01-26T05:13:19.486Z,967.19
2023-01-26T05:14:09.538Z,967.20
2023-01-26T05:14:59.470Z,967.22
2023-01-26T05:15:49.468Z,967.24
2023-01-26T05:16:39.503Z,967.26
2023-01-26T05:17:29.444Z,967.27
2023-01-26T05:18:19.432Z,967.26
2023-01-26T05:19:09.452Z,967.26
2023-01-26T05:19:59.407Z,967.31
2023-01-26T05:20:49.399Z,967.29
2023-01-26T05:21:39.386Z,967.26
2023-01-26T05:22:29.395Z,967.26
2023-01-26T05:23:19.382Z,967.27
2023-01-26T05:24:09.433Z,967.27
2023-01-26T05:24:59.387Z,967.29
2023-01-26T05:25:49.356Z,967.24
2023-01-26T05:26:39.341Z,967.25
2023-01-26T05:27:29.325Z,967.27
2023-01-26T05:28:19.318Z,967.28
2023-01-26T05:29:09.313Z,967.27
2023-01-26T05:29:59.333Z,967.29
2023-01-26T05:30:49.309Z,967.31
2023-01-26T05:31:39.335Z,967.29
2023-01-26T05:32:29.313Z,967.30
2023-01-26T05:33:19.263Z,967.29
2023-01-26T05:34:09.257Z,967.27
2023-01-26T05:34:59.245Z,967.30
2023-01-26T05:35:49.254Z,967.27
2023-01-26T05:36:39.255Z,967.23
2023-01-26T05:37:29.229Z,967.25
2023-01-26T05:38:19.233Z,967.27
2023-01-26T05:39:09.192Z,967.30
2023-01-26T05:39:59.203Z,967.27
2023-01-26T05:40:49.216Z,967.27
2023-01-26T05:41:39.163Z,967.30
2023-01-26T05:42:29.186Z,967.27
2023-01-26T05:43:19.164Z,967.28
2023-01-26T05:44:10.485Z,967.26
2023-01-26T05:44:59.126Z,967.29
2023-01-26T05:45:49.239Z,967.27
2023-01-26T05:46:39.113Z,967.34
2023-01-26T05:47:29.102Z,967.30
2023-01-26T05:48:19.103Z,967.27
2023-01-26T05:49:09.083Z,967.31
2023-01-26T05:49:59.088Z,967.32
2023-01-26T05:50:49.082Z,967.31
2023-01-26T05:51:39.060Z,967.29
2023-01-26T05:52:29.062Z,967.32
2023-01-26T05:53:19.058Z,967.30
2023-01-26T05:54:09.035Z,967.31
2023-01-26T05:54:59.054Z,967.28
2023-01-26T05:55:49.020Z,967.29
2023-01-26T05:56:39.021Z,967.25
2023-01-26T05:57:29.011Z,967.25
2023-01-26T05:58:19.010Z,967.25
2023-01-26T05:59:09.003Z,967.24
2023-01-26T05:59:58.993Z,967.25
2023-01-26T06:00:48.980Z,967.23
2023-01-26T06:01:38.972Z,967.24
2023-01-26T06:02:28.997Z,967.26
2023-01-26T06:03:18.953Z,967.27
2023-01-26T06:04:08.981Z,967.25
2023-01-26T06:04:58.950Z,967.24
2023-01-26T06:05:48.939Z,967.25
2023-01-26T06:06:38.912Z,967.24
2023-01-26T06:07:28.901Z,967.21
2023-01-26T06:08:18.886Z,967.21
2023-01-26T06:09:08.858Z,967.18
2023-01-26T06:09:58.877Z,967.22
2023-01-26T06:10:48.875Z,967.17
2023-01-26T06:11:38.869Z,967.18
2023-01-26T06:12:28.826Z,967.20
2023-01-26T06:13:18.825Z,967.14
2023-01-26T06:14:08.846Z,967.19
2023-01-26T06:14:58.844Z,967.17
2023-01-26T06:15:48.823Z,967.16
2023-01-26T06:16:38.809Z,967.20
2023-01-26T06:17:28.815Z,967.20
2023-01-26T06:18:18.790Z,967.21
2023-01-26T06:19:08.779Z,967.20
2023-01-26T06:19:58.774Z,967.20
2023-01-26T06:20:48.741Z,967.13
2023-01-26T06:21:38.743Z,967.17
2023-01-26T06:22:28.733Z,967.14
2023-01-26T06:23:18.738Z,967.17
2023-01-26T06:24:08.721Z,967.16
2023-01-26T06:24:58.725Z,967.15
2023-01-26T06:25:48.706Z,967.16
2023-01-26T06:26:38.683Z,967.15
2023-01-26T06:27:28.702Z,967.13
2023-01-26T06:28:18.683Z,967.16
2023-01-26T06:29:08.656Z,967.19
2023-01-26T06:29:58.667Z,967.22
2023-01-26T06:30:48.740Z,967.18
2023-01-26T06:31:38.762Z,967.19
2023-01-26T06:32:28.624Z,967.19
2023-01-26T06:33:18.628Z,967.16
2023-01-26T06:34:08.612Z,967.16
2023-01-26T06:34:58.615Z,967.19
2023-01-26T06:35:48.721Z,967.20
2023-01-26T06:36:38.571Z,967.16
2023-01-26T06:37:28.592Z,967.16
2023-01-26T06:38:18.562Z,967.13
2023-01-26T06:39:08.562Z,967.18
2023-01-26T06:39:58.535Z,967.17
2023-01-26T06:40:48.554Z,967.18
2023-01-26T06:41:38.532Z,967.19
2023-01-26T06:42:28.535Z,967.18
2023-01-26T06:43:18.502Z,967.21
2023-01-26T06:44:08.491Z,967.22
2023-01-26T06:44:58.542Z,967.22
2023-01-26T06:45:48.528Z,967.21
2023-01-26T06:46:38.750Z,967.20
2023-01-26T06:47:28.458Z,967.23
2023-01-26T06:48:18.461Z,967.21
2023-01-26T06:49:08.428Z,967.23
2023-01-26T06:49:58.440Z,967.26
2023-01-26T06:50:48.428Z,967.30
2023-01-26T06:51:38.422Z,967.26
2023-01-26T06:52:28.468Z,967.25
2023-01-26T06:53:18.406Z,967.25
2023-01-26T06:54:08.417Z,967.27
2023-01-26T06:54:58.410Z,967.29
2023-01-26T06:55:48.356Z,967.29
2023-01-26T06:56:38.378Z,967.28
2023-01-26T06:57:28.370Z,967.26
2023-01-26T06:58:18.344Z,967.26
2023-01-26T06:59:08.337Z,967.23
2023-01-26T06:59:58.329Z,967.24
2023-01-26T07:00:48.305Z,967.28
2023-01-26T07:01:38.336Z,967.23
2023-01-26T07:02:28.390Z,967.27
2023-01-26T07:03:18.295Z,967.29
2023-01-26T07:04:08.276Z,967.31
2023-01-26T07:04:58.262Z,967.31
2023-01-26T07:05:48.274Z,967.29
2023-01-26T07:06:38.284Z,967.35
2023-01-26T07:07:28.226Z,967.31
2023-01-26T07:08:18.235Z,967.31
2023-01-26T07:09:08.234Z,967.27
2023-01-26T07:09:58.257Z,967.30
2023-01-26T07:10:48.215Z,967.31
2023-01-26T07:11:38.223Z,967.32
2023-01-26T07:12:28.208Z,967.30
2023-01-26T07:13:18.167Z,967.29
2023-01-26T07:14:08.181Z,967.34
2023-01-26T07:14:58.183Z,967.38
2023-01-26T07:15:48.164Z,967.39
2023-01-26T07:16:38.212Z,967.36
2023-01-26T07:17:28.147Z,967.41
2023-01-26T07:18:18.134Z,967.39
2023-01-26T07:19:08.211Z,967.35
2023-01-26T07:19:58.121Z,967.34
2023-01-26T07:20:48.104Z,967.36
2023-01-26T07:21:38.231Z,967.40
2023-01-26T07:22:28.070Z,967.37
2023-01-26T07:23:18.061Z,967.44
2023-01-26T07:24:08.216Z,967.43
2023-01-26T07:24:58.059Z,967.45
2023-01-26T07:25:48.067Z,967.48
2023-01-26T07:26:38.041Z,967.48
2023-01-26T07:27:28.038Z,967.46
2023-01-26T07:28:18.016Z,967.41
2023-01-26T07:29:07.992Z,967.47
2023-01-26T07:29:58.014Z,967.46
2023-01-26T07:30:48.116Z,967.44
2023-01-26T07:31:38.099Z,967.45
2023-01-26T07:32:27.969Z,967.47
2023-01-26T07:33:18.013Z,967.46
2023-01-26T07:34:07.949Z,967.44
2023-01-26T07:34:57.944Z,967.45
2023-01-26T07:35:47.934Z,967.45
2023-01-26T07:36:38.240Z,967.45
2023-01-26T07:37:27.919Z,967.47
2023-01-26T07:38:17.908Z,967.45
2023-01-26T07:39:08.649Z,967.45
2023-01-26T07:39:57.895Z,967.43
2023-01-26T07:40:47.886Z,967.46
2023-01-26T07:41:37.885Z,967.42
2023-01-26T07:42:28.027Z,967.46
2023-01-26T07:43:17.848Z,967.47
2023-01-26T07:44:07.941Z,967.52
2023-01-26T07:44:57.856Z,967.48
2023-01-26T07:45:47.816Z,967.46
2023-01-26T07:46:37.902Z,967.46
2023-01-26T07:47:27.795Z,967.46
2023-01-26T07:48:17.795Z,967.44
2023-01-26T07:49:07.998Z,967.42
2023-01-26T07:49:57.794Z,967.43
2023-01-26T07:50:47.812Z,967.44
2023-01-26T07:51:37.794Z,967.45
2023-01-26T07:52:27.786Z,967.48
2023-01-26T07:53:17.745Z,967.46
2023-01-26T07:54:07.739Z,967.47
2023-01-26T07:54:57.763Z,967.51
2023-01-26T07:55:47.762Z,967.47
2023-01-26T07:56:37.763Z,967.45
2023-01-26T07:57:27.703Z,967.46
2023-01-26T07:58:17.701Z,967.45
2023-01-26T07:59:07.685Z,967.50
2023-01-26T07:59:57.664Z,967.54
2023-01-26T08:00:47.711Z,967.54
2023-01-26T08:01:37.723Z,967.50
2023-01-26T08:02:27.660Z,967.49
2023-01-26T08:03:17.655Z,967.47
2023-01-26T08:04:07.635Z,967.47
2023-01-26T08:04:57.621Z,967.47
2023-01-26T08:05:47.692Z,967.47
2023-01-26T08:06:37.621Z,967.41
2023-01-26T08:07:27.591Z,967.46
2023-01-26T08:08:17.574Z,967.44
2023-01-26T08:09:07.581Z,967.43
2023-01-26T08:09:57.599Z,967.41
2023-01-26T08:10:47.558Z,967.39
2023-01-26T08:11:37.565Z,967.45
2023-01-26T08:12:27.576Z,967.39
2023-01-26T08:13:29.930Z,967.42
2023-01-26T08:14:08.529Z,967.46
2023-01-26T08:14:57.519Z,967.45
2023-01-26T08:15:47.519Z,967.43
2023-01-26T08:16:37.563Z,967.43
2023-01-26T08:17:27.483Z,967.43
2023-01-26T08:18:17.469Z,967.40
2023-01-26T08:19:07.471Z,967.41
2023-01-26T08:19:57.448Z,967.39
2023-01-26T08:20:47.472Z,967.42
2023-01-26T08:21:37.458Z,967.41
2023-01-26T08:22:27.467Z,967.41
2023-01-26T08:23:17.433Z,967.41
2023-01-26T08:24:07.475Z,967.41
2023-01-26T08:24:57.410Z,967.41
2023-01-26T08:25:47.553Z,967.44
2023-01-26T08:26:37.459Z,967.45
2023-01-26T08:27:27.371Z,967.48
2023-01-26T08:28:17.375Z,967.46
2023-01-26T08:29:07.361Z,967.46
2023-01-26T08:29:57.345Z,967.45
2023-01-26T08:30:47.374Z,967.51
2023-01-26T08:31:37.434Z,967.43
2023-01-26T08:32:27.344Z,967.48
2023-01-26T08:33:17.310Z,967.46
2023-01-26T08:34:07.304Z,967.47
2023-01-26T08:34:57.283Z,967.48
2023-01-26T08:35:47.273Z,967.53
2023-01-26T08:36:37.292Z,967.53
2023-01-26T08:37:27.308Z,967.51
2023-01-26T08:38:17.243Z,967.52
2023-01-26T08:39:07.232Z,967.60
2023-01-26T08:39:57.256Z,967.53
2023-01-26T08:40:47.229Z,967.54
2023-01-26T08:41:37.251Z,967.55
2023-01-26T08:42:27.191Z,967.58
2023-01-26T08:43:17.244Z,967.58
2023-01-26T08:44:07.283Z,967.57
2023-01-26T08:44:57.194Z,967.58
2023-01-26T08:45:47.221Z,967.53
2023-01-26T08:46:37.173Z,967.58
2023-01-26T08:47:27.161Z,967.53
2023-01-26T08:48:17.161Z,967.53
2023-01-26T08:49:07.166Z,967.55
2023-01-26T08:49:57.149Z,967.52
2023-01-26T08:50:47.109Z,967.54
2023-01-26T08:51:37.104Z,967.52
2023-01-26T08:52:27.103Z,967.53
2023-01-26T08:53:17.117Z,967.48
2023-01-26T08:54:07.076Z,967.50
2023-01-26T08:54:57.081Z,967.54
2023-01-26T08:55:47.059Z,967.54
2023-01-26T08:56:37.063Z,967.52
2023-01-26T08:57:27.066Z,967.49
2023-01-26T08:58:17.076Z,967.50
2023-01-26T08:59:07.025Z,967.46
2023-01-26T08:59:57.040Z,967.46
2023-01-26T09:00:47.045Z,967.50
2023-01-26T09:01:37.060Z,967.53
2023-01-26T09:02:27.065Z,967.52
2023-01-26T09:03:17.112Z,967.54
2023-01-26T09:04:07.007Z,967.52
2023-01-26T09:04:56.979Z,967.49
2023-01-26T09:05:46.946Z,967.50
2023-01-26T09:06:36.937Z,967.49
2023-01-26T09:07:26.944Z,967.49
2023-01-26T09:08:16.928Z,967.47
2023-01-26T09:09:06.947Z,967.49
2023-01-26T09:09:56.938Z,967.49
2023-01-26T09:10:46.906Z,967.52
2023-01-26T09:11:36.897Z,967.48
2023-01-26T09:12:26.876Z,967.52
2023-01-26T09:13:16.894Z,967.50
2023-01-26T09:14:06.879Z,967.51
2023-01-26T09:14:56.875Z,967.50
2023-01-26T09:15:46.854Z,967.52
2023-01-26T09:16:36.874Z,967.49
2023-01-26T09:17:26.858Z,967.50
2023-01-26T09:18:16.835Z,967.46
2023-01-26T09:19:06.832Z,967.53
2023-01-26T09:19:56.820Z,967.53
2023-01-26T09:20:46.803Z,967.49
2023-01-26T09:21:36.792Z,967.51
2023-01-26T09:22:26.775Z,967.55
2023-01-26T09:23:16.771Z,967.50
2023-01-26T09:24:06.823Z,967.53
2023-01-26T09:24:56.776Z,967.56
2023-01-26T09:25:46.734Z,967.54
2023-01-26T09:26:36.731Z,967.60
2023-01-26T09:27:26.731Z,967.57
2023-01-26T09:28:16.702Z,967.64
2023-01-26T09:29:06.791Z,967.63
2023-01-26T09:29:56.753Z,967.59
2023-01-26T09:30:46.752Z,967.56
2023-01-26T09:31:36.774Z,967.59
2023-01-26T09:32:26.683Z,967.55
2023-01-26T09:33:16.674Z,967.58
2023-01-26T09:34:06.640Z,967.57
2023-01-26T09:34:56.644Z,967.57
2023-01-26T09:35:46.636Z,967.53
2023-01-26T09:36:36.669Z,967.53
2023-01-26T09:37:26.619Z,967.55
2023-01-26T09:38:16.592Z,967.58
2023-01-26T09:39:06.599Z,967.56
2023-01-26T09:39:56.595Z,967.60
2023-01-26T09:40:46.682Z,967.57
2023-01-26T09:41:36.575Z,967.58
2023-01-26T09:42:26.576Z,967.58
2023-01-26T09:43:16.575Z,967.59
2023-01-26T09:44:06.552Z,967.62
2023-01-26T09:44:56.529Z,967.60
2023-01-26T09:45:46.551Z,967.57
2023-01-26T09:46:36.530Z,967.63
2023-01-26T09:47:26.527Z,967.60
2023-01-26T09:48:16.497Z,967.58
2023-01-26T09:49:06.522Z,967.60
2023-01-26T09:49:57.496Z,967.58
2023-01-26T09:50:46.505Z,967.56
2023-01-26T09:51:36.464Z,967.59
2023-01-26T09:52:26.448Z,967.57
2023-01-26T09:53:16.447Z,967.59
2023-01-26T09:54:06.490Z,967.60
2023-01-26T09:54:56.425Z,967.59
2023-01-26T09:55:46.406Z,967.56
2023-01-26T09:56:36.412Z,967.58
2023-01-26T09:57:26.454Z,967.64
2023-01-26T09:58:16.654Z,967.58
2023-01-26T09:59:06.373Z,967.61
2023-01-26T09:59:56.387Z,967.58
2023-01-26T10:00:46.373Z,967.54
2023-01-26T10:01:36.371Z,967.54
2023-01-26T10:02:26.384Z,967.57
2023-01-26T10:03:16.365Z,967.58
2023-01-26T10:04:06.344Z,967.55
2023-01-26T10:04:56.313Z,967.54
2023-01-26T10:05:46.322Z,967.55
2023-01-26T10:06:36.291Z,967.54
2023-01-26T10:07:26.317Z,967.53
2023-01-26T10:08:16.319Z,967.58
2023-01-26T10:09:06.279Z,967.54
2023-01-26T10:09:56.256Z,967.56
2023-01-26T10:10:46.258Z,967.51
2023-01-26T10:11:36.249Z,967.55
2023-01-26T10:12:26.288Z,967.52
2023-01-26T10:13:16.227Z,967.51
2023-01-26T10:14:06.211Z,967.51
2023-01-26T10:15:09.322Z,967.49
2023-01-26T10:15:47.293Z,967.50
2023-01-26T10:16:36.190Z,967.46
2023-01-26T10:17:26.196Z,967.49
2023-01-26T10:18:16.183Z,967.44
2023-01-26T10:19:06.274Z,967.46
2023-01-26T10:19:56.162Z,967.47
2023-01-26T10:20:46.152Z,967.47
2023-01-26T10:21:36.141Z,967.45
2023-01-26T10:22:26.122Z,967.53
2023-01-26T10:23:16.187Z,967.46